createdAt,value
2023-04-19T00:01:24.760Z,12.50
2023-04-19T00:03:53.507Z,12.97
2023-04-19T00:06:22.024Z,11.87
2023-04-19T00:08:50.481Z,12.83
2023-04-19T00:11:20.482Z,11.67
2023-04-19T00:13:49.370Z,11.53
2023-04-19T00:16:19.695Z,11.43
2023-04-19T00:18:48.609Z,11.80
2023-04-19T00:21:17.039Z,11.73
2023-04-19T00:23:45.418Z,12.40
2023-04-19T00:26:15.741Z,13.37
2023-04-19T00:28:48.970Z,12.50
2023-04-19T00:31:17.432Z,12.07
2023-04-19T00:33:48.320Z,12.37
2023-04-19T00:36:16.663Z,11.77
2023-04-19T00:38:45.102Z,12.03
2023-04-19T00:41:13.844Z,11.90
2023-04-19T00:43:42.209Z,13.13
2023-04-19T00:46:11.291Z,12.77
2023-04-19T00:48:40.830Z,13.37
2023-04-19T00:51:11.934Z,12.33
2023-04-19T00:53:42.007Z,12.90
2023-04-19T00:56:11.977Z,12.73
2023-04-19T00:58:41.028Z,12.03
2023-04-19T01:01:10.954Z,11.40
2023-04-19T01:03:40.141Z,12.13
2023-04-19T01:06:10.747Z,12.30
2023-04-19T01:08:39.753Z,13.13
2023-04-19T01:11:09.726Z,14.37
2023-04-19T01:13:39.174Z,12.27
2023-04-19T01:16:08.579Z,12.33
2023-04-19T01:18:37.696Z,13.10
2023-04-19T01:21:08.740Z,13.07
2023-04-19T01:23:39.491Z,14.63
2023-04-19T01:26:08.478Z,12.53
2023-04-19T01:28:36.723Z,14.07
2023-04-19T01:31:05.130Z,12.77
2023-04-19T01:33:35.845Z,14.37
2023-04-19T01:36:04.744Z,13.00
2023-04-19T01:38:33.071Z,14.53
2023-04-19T01:41:02.764Z,14.17
2023-04-19T01:43:33.003Z,12.57
2023-04-19T01:46:01.365Z,15.20
2023-04-19T01:48:30.005Z,13.10
2023-04-19T01:50:59.781Z,12.67
2023-04-19T01:53:29.032Z,12.23
2023-04-19T01:55:57.535Z,12.47
2023-04-19T01:58:29.767Z,12.73
2023-04-19T02:00:58.377Z,13.83
2023-04-19T02:03:27.084Z,12.27
2023-04-19T02:05:55.474Z,12.73
2023-04-19T02:08:24.911Z,11.73
2023-04-19T02:10:53.379Z,12.17
2023-04-19T02:13:21.776Z,12.00
2023-04-19T02:15:58.193Z,13.47
2023-04-19T02:18:29.764Z,12.63
2023-04-19T02:20:59.680Z,12.07
2023-04-19T02:23:28.006Z,11.40
2023-04-19T02:26:06.553Z,11.60
2023-04-19T02:28:44.233Z,13.07
2023-04-19T02:31:15.907Z,13.13
2023-04-19T02:33:53.778Z,11.40
2023-04-19T02:36:32.090Z,11.47
2023-04-19T02:39:00.433Z,12.10
2023-04-19T02:41:28.722Z,13.03
2023-04-19T02:43:57.398Z,11.70
2023-04-19T02:46:27.534Z,11.87
2023-04-19T02:48:55.983Z,12.93
2023-04-19T02:51:24.651Z,11.00
2023-04-19T02:53:53.342Z,11.30
2023-04-19T02:56:22.313Z,11.40
2023-04-19T02:58:50.939Z,11.83
2023-04-19T03:01:19.346Z,11.20
2023-04-19T03:03:49.417Z,11.37
2023-04-19T03:06:17.952Z,11.53
2023-04-19T03:08:47.115Z,11.43
2023-04-19T03:11:17.469Z,11.33
2023-04-19T03:13:46.623Z,11.27
2023-04-19T03:16:16.610Z,12.10
2023-04-19T03:18:47.933Z,11.33
2023-04-19T03:21:20.983Z,10.33
2023-04-19T03:23:54.280Z,11.37
2023-04-19T03:26:22.794Z,9.83
2023-04-19T03:28:54.765Z,10.27
2023-04-19T03:31:23.260Z,9.97
2023-04-19T03:33:53.413Z,10.60
2023-04-19T03:36:28.472Z,10.67
2023-04-19T03:38:56.827Z,9.80
2023-04-19T03:41:26.568Z,12.33
2023-04-19T03:44:06.765Z,9.80
2023-04-19T03:46:36.088Z,8.47
2023-04-19T03:49:05.063Z,9.13
2023-04-19T03:51:37.112Z,9.00
2023-04-19T03:54:05.756Z,9.70
2023-04-19T03:56:34.285Z,10.10
2023-04-19T03:59:02.695Z,9.50
2023-04-19T04:01:33.357Z,9.77
2023-04-19T04:04:05.429Z,9.20
2023-04-19T04:06:34.193Z,8.27
2023-04-19T04:09:04.359Z,9.73
2023-04-19T04:11:33.178Z,9.97
2023-04-19T04:14:02.198Z,9.43
2023-04-19T04:16:35.154Z,9.47
2023-04-19T04:19:03.738Z,9.23
2023-04-19T04:21:35.021Z,12.07
2023-04-19T04:24:07.881Z,9.20
2023-04-19T04:26:42.702Z,8.97
2023-04-19T04:29:20.639Z,9.23
2023-04-19T04:31:51.421Z,9.47
2023-04-19T04:34:24.663Z,8.20
2023-04-19T04:37:00.484Z,8.40
2023-04-19T04:39:30.519Z,8.70
2023-04-19T04:41:59.709Z,9.60
2023-04-19T04:44:29.141Z,9.10
2023-04-19T04:46:57.780Z,8.70
2023-04-19T04:49:29.130Z,8.90
2023-04-19T04:52:00.182Z,8.70
2023-04-19T04:54:32.741Z,9.30
2023-04-19T04:57:02.731Z,9.87
2023-04-19T04:59:31.715Z,9.97
2023-04-19T05:02:00.063Z,10.03
2023-04-19T05:04:31.445Z,10.03
2023-04-19T05:06:59.966Z,9.67
2023-04-19T05:09:29.584Z,10.07
2023-04-19T05:12:00.147Z,9.90
2023-04-19T05:14:28.718Z,10.77
2023-04-19T05:16:58.060Z,11.23
2023-04-19T05:19:26.667Z,9.80
2023-04-19T05:22:02.263Z,9.63
2023-04-19T05:24:30.664Z,10.03
2023-04-19T05:27:03.410Z,9.90
2023-04-19T05:29:33.366Z,9.67
2023-04-19T05:32:02.270Z,10.27
2023-04-19T05:34:33.782Z,10.00
2023-04-19T05:37:03.747Z,9.57
2023-04-19T05:39:32.345Z,10.13
2023-04-19T05:42:03.055Z,9.30
2023-04-19T05:44:32.915Z,11.20
2023-04-19T05:47:01.782Z,10.77
2023-04-19T05:49:52.963Z,10.63
2023-04-19T05:52:28.433Z,9.27
2023-04-19T05:55:00.322Z,9.03
2023-04-19T05:57:30.546Z,10.67
2023-04-19T06:02:41.947Z,9.83
2023-04-19T06:05:16.222Z,9.23
2023-04-19T06:07:54.426Z,9.53
2023-04-19T06:10:34.026Z,10.20
2023-04-19T06:13:18.454Z,10.23
2023-04-19T06:15:48.439Z,9.50
2023-04-19T06:18:18.984Z,9.23
2023-04-19T06:20:48.390Z,10.23
2023-04-19T06:23:18.749Z,8.87
2023-04-19T06:25:48.850Z,9.57
2023-04-19T06:28:28.876Z,8.80
2023-04-19T06:30:57.194Z,9.67
2023-04-19T06:33:25.632Z,9.67
2023-04-19T06:35:53.963Z,9.03
2023-04-19T06:38:23.355Z,8.47
2023-04-19T06:40:53.540Z,10.63
2023-04-19T06:43:22.621Z,9.43
2023-04-19T06:45:59.365Z,8.97
2023-04-19T06:48:28.198Z,9.67
2023-04-19T06:50:57.967Z,10.83
2023-04-19T06:53:28.816Z,8.83
2023-04-19T06:55:59.996Z,8.93
2023-04-19T06:58:28.639Z,10.20
2023-04-19T07:00:58.354Z,9.67
2023-04-19T07:03:26.977Z,9.60
2023-04-19T07:05:58.795Z,9.10
2023-04-19T07:08:35.062Z,9.70
2023-04-19T07:11:11.522Z,9.30
2023-04-19T07:13:40.816Z,8.67
2023-04-19T07:16:10.781Z,8.73
2023-04-19T07:18:39.174Z,8.67
2023-04-19T07:21:07.559Z,9.50
2023-04-19T07:23:46.915Z,9.63
2023-04-19T07:26:16.021Z,7.90
2023-04-19T07:28:44.946Z,9.53
2023-04-19T07:31:21.200Z,7.83
2023-04-19T07:33:50.680Z,8.67
2023-04-19T07:36:19.308Z,7.60
2023-04-19T07:38:48.447Z,8.77
2023-04-19T07:41:18.104Z,7.90
2023-04-19T07:43:46.559Z,9.00
2023-04-19T07:46:17.039Z,8.93
2023-04-19T07:48:46.984Z,7.83
2023-04-19T07:51:17.530Z,8.40
2023-04-19T07:53:49.354Z,8.00
2023-04-19T07:56:26.466Z,8.47
2023-04-19T07:59:06.878Z,9.03
2023-04-19T08:01:38.110Z,7.17
2023-04-19T08:04:08.909Z,8.73
2023-04-19T08:06:40.604Z,10.50
2023-04-19T08:09:10.424Z,8.90
2023-04-19T08:11:39.253Z,10.20
2023-04-19T08:14:21.778Z,8.57
2023-04-19T08:19:30.637Z,9.30
2023-04-19T08:21:58.963Z,8.73
2023-04-19T08:24:28.154Z,8.40
2023-04-19T08:26:58.198Z,9.47
2023-04-19T08:29:27.895Z,8.70
2023-04-19T08:31:56.746Z,8.77
2023-04-19T08:34:25.182Z,8.00
2023-04-19T08:37:03.406Z,9.70
2023-04-19T08:39:34.174Z,9.17
2023-04-19T08:42:10.928Z,8.53
2023-04-19T08:45:13.178Z,7.80
2023-04-19T08:47:51.973Z,9.93
2023-04-19T08:50:33.404Z,9.00
2023-04-19T08:53:20.945Z,10.33
2023-04-19T08:56:10.682Z,7.93
2023-04-19T09:01:22.794Z,9.47
2023-04-19T09:04:21.065Z,8.63
2023-04-19T09:06:50.528Z,9.47
2023-04-19T09:11:54.750Z,9.37
2023-04-19T09:14:24.532Z,9.80
2023-04-19T09:16:53.295Z,9.27
2023-04-19T09:19:25.210Z,10.60
2023-04-19T09:21:55.093Z,11.30
2023-04-19T09:27:28.930Z,10.90
2023-04-19T09:29:59.248Z,9.63
2023-04-19T09:32:29.025Z,9.90
2023-04-19T09:34:58.800Z,10.07
2023-04-19T09:37:51.482Z,10.10
2023-04-19T09:40:27.023Z,10.77
2023-04-19T09:45:30.896Z,9.30
2023-04-19T09:48:04.458Z,9.67
2023-04-19T09:50:33.994Z,9.20
2023-04-19T09:53:08.369Z,9.63
2023-04-19T09:55:52.656Z,7.80
2023-04-19T09:58:34.506Z,8.20
2023-04-19T10:01:14.796Z,9.20
2023-04-19T10:03:46.896Z,7.80
2023-04-19T10:06:32.145Z,7.40
2023-04-19T10:09:07.010Z,8.10
2023-04-19T10:11:40.154Z,7.10
2023-04-19T10:14:12.233Z,7.83
2023-04-19T10:16:41.000Z,8.37
2023-04-19T10:19:12.131Z,8.97
2023-04-19T10:21:42.889Z,8.80
2023-04-19T10:24:14.225Z,8.03
2023-04-19T10:27:11.880Z,7.87
2023-04-19T10:30:04.549Z,7.57
2023-04-19T10:32:40.592Z,7.70
2023-04-19T10:35:10.203Z,8.00
2023-04-19T10:37:42.242Z,7.97
2023-04-19T10:40:12.743Z,7.70
2023-04-19T10:43:18.097Z,8.53
2023-04-19T10:45:49.331Z,8.60
2023-04-19T10:48:43.873Z,7.47
2023-04-19T10:51:17.082Z,7.17
2023-04-19T10:53:58.144Z,8.50
2023-04-19T10:56:58.992Z,6.57
2023-04-19T10:59:27.820Z,7.13
2023-04-19T11:01:59.878Z,6.93
2023-04-19T11:05:01.919Z,6.70
2023-04-19T11:07:37.363Z,6.03
2023-04-19T11:10:06.706Z,6.87
2023-04-19T11:12:35.975Z,7.43
2023-04-19T11:15:04.610Z,7.77
2023-04-19T11:17:35.332Z,8.77
2023-04-19T11:20:07.215Z,7.00
2023-04-19T11:22:37.695Z,8.43
2023-04-19T11:25:11.021Z,5.43
2023-04-19T11:27:40.162Z,5.80
2023-04-19T11:30:11.442Z,5.70
2023-04-19T11:32:46.725Z,5.63
2023-04-19T11:35:16.250Z,6.13
2023-04-19T11:37:44.749Z,6.03
2023-04-19T11:40:17.387Z,5.80
2023-04-19T11:42:45.952Z,7.53
2023-04-19T11:45:31.124Z,6.30
2023-04-19T11:48:03.886Z,7.33
2023-04-19T11:50:39.522Z,7.53
2023-04-19T11:53:12.959Z,7.10
2023-04-19T11:55:47.823Z,6.37
2023-04-19T11:58:29.161Z,7.17
2023-04-19T12:00:58.510Z,5.90
2023-04-19T12:03:28.575Z,7.57
2023-04-19T12:06:05.182Z,6.80
2023-04-19T12:08:45.588Z,7.17
2023-04-19T12:11:26.704Z,8.30
2023-04-19T12:14:11.800Z,8.57
2023-04-19T12:17:07.776Z,8.30
2023-04-19T12:19:55.929Z,9.90
2023-04-19T12:22:24.829Z,8.27
2023-04-19T12:24:56.033Z,8.10
2023-04-19T12:27:25.721Z,8.77
2023-04-19T12:29:54.134Z,9.13
2023-04-19T12:32:23.025Z,9.53
2023-04-19T12:34:52.831Z,10.47
2023-04-19T12:37:22.868Z,8.87
2023-04-19T12:39:51.860Z,8.60
2023-04-19T12:42:20.596Z,8.87
2023-04-19T12:44:49.217Z,14.53
2023-04-19T12:47:17.773Z,9.57
2023-04-19T12:49:46.551Z,10.23
2023-04-19T12:52:14.852Z,9.53
2023-04-19T12:54:47.692Z,8.90
2023-04-19T12:57:16.190Z,9.83
2023-04-19T12:59:44.491Z,9.80
2023-04-19T13:02:12.906Z,12.23
2023-04-19T13:04:41.469Z,11.27
2023-04-19T13:07:11.854Z,11.60
2023-04-19T13:09:40.282Z,11.33
2023-04-19T13:12:10.379Z,12.73
2023-04-19T13:14:38.700Z,11.73
2023-04-19T13:17:07.126Z,12.77
2023-04-19T13:19:36.811Z,13.70
2023-04-19T13:22:05.119Z,15.23
2023-04-19T13:24:33.695Z,16.10
2023-04-19T13:27:02.337Z,14.37
2023-04-19T13:29:32.108Z,14.23
2023-04-19T13:32:01.056Z,14.60
2023-04-19T13:34:29.603Z,15.73
2023-04-19T13:36:58.445Z,14.70
2023-04-19T13:39:27.220Z,15.77
2023-04-19T13:41:55.621Z,14.33
2023-04-19T13:44:25.308Z,14.40
2023-04-19T13:46:55.218Z,13.40
2023-04-19T13:49:23.828Z,11.80
2023-04-19T13:51:52.649Z,12.30
2023-04-19T13:54:21.329Z,11.43
2023-04-19T13:56:52.101Z,13.63
2023-04-19T13:59:21.743Z,11.17
2023-04-19T14:01:50.297Z,9.80
2023-04-19T14:04:20.483Z,11.07
2023-04-19T14:06:49.728Z,10.67
2023-04-19T14:09:18.851Z,11.73
2023-04-19T14:11:48.951Z,10.37
2023-04-19T14:14:17.543Z,12.07
2023-04-19T14:16:48.111Z,9.77
2023-04-19T14:19:16.924Z,8.47
2023-04-19T14:21:47.564Z,8.57
2023-04-19T14:24:16.257Z,8.90
2023-04-19T14:26:44.763Z,9.67
2023-04-19T14:29:13.190Z,8.70
2023-04-19T14:31:42.247Z,9.63
2023-04-19T14:34:10.572Z,8.00
2023-04-19T14:36:38.922Z,8.00
2023-04-19T14:39:09.008Z,7.50
2023-04-19T14:41:38.440Z,8.77
2023-04-19T14:44:06.796Z,7.77
2023-04-19T14:46:35.437Z,9.03
2023-04-19T14:49:06.067Z,8.90
2023-04-19T14:51:34.565Z,8.63
2023-04-19T14:54:02.910Z,8.37
2023-04-19T14:56:32.728Z,9.10
2023-04-19T14:59:01.368Z,8.50
2023-04-19T15:01:31.587Z,8.80
2023-04-19T15:04:01.330Z,9.43
2023-04-19T15:06:29.969Z,10.40
2023-04-19T15:08:58.199Z,7.67
2023-04-19T15:11:26.547Z,7.77
2023-04-19T15:13:56.290Z,7.83
2023-04-19T15:16:25.487Z,8.07
2023-04-19T15:18:53.908Z,7.53
2023-04-19T15:21:24.661Z,8.80
2023-04-19T15:23:53.224Z,7.83
2023-04-19T15:26:21.843Z,10.03
2023-04-19T15:28:50.296Z,7.53
2023-04-19T15:31:19.997Z,7.47
2023-04-19T15:33:49.990Z,6.80
2023-04-19T15:36:18.779Z,7.30
2023-04-19T15:38:47.046Z,10.47
2023-04-19T15:41:15.613Z,7.57
2023-04-19T15:43:43.929Z,7.10
2023-04-19T15:46:14.005Z,6.43
2023-04-19T15:48:46.754Z,4.60
2023-04-19T15:51:16.180Z,5.87
2023-04-19T15:53:44.835Z,6.50
2023-04-19T15:56:13.267Z,5.63
2023-04-19T15:58:42.150Z,6.07
2023-04-19T16:01:13.805Z,6.53
2023-04-19T16:03:45.841Z,6.17
2023-04-19T16:06:14.360Z,5.47
2023-04-19T16:08:42.867Z,6.60
2023-04-19T16:11:11.182Z,6.53
2023-04-19T16:13:39.645Z,5.37
2023-04-19T16:16:08.708Z,4.10
2023-04-19T16:18:38.571Z,4.30
2023-04-19T16:21:18.269Z,4.83
2023-04-19T16:23:48.476Z,4.13
2023-04-19T16:26:18.014Z,3.93
2023-04-19T16:28:56.285Z,4.00
2023-04-19T16:31:36.087Z,4.67
2023-04-19T16:34:14.336Z,4.40
2023-04-19T16:36:54.402Z,6.07
2023-04-19T16:39:25.552Z,4.23
2023-04-19T16:42:03.985Z,3.53
2023-04-19T16:44:42.347Z,4.90
2023-04-19T16:47:21.879Z,3.70
2023-04-19T16:49:58.025Z,6.13
2023-04-19T16:52:32.240Z,7.90
2023-04-19T16:55:03.308Z,5.47
2023-04-19T16:57:32.686Z,4.53
2023-04-19T17:00:01.494Z,4.30
2023-04-19T17:02:30.213Z,5.37
2023-04-19T17:05:00.233Z,4.43
2023-04-19T17:07:30.333Z,5.53
2023-04-19T17:09:58.937Z,5.90
2023-04-19T17:12:27.298Z,7.77
2023-04-19T17:14:55.695Z,10.97
2023-04-19T17:17:24.729Z,13.70
2023-04-19T17:19:56.687Z,8.57
2023-04-19T17:22:25.267Z,4.13
2023-04-19T17:24:57.360Z,5.13
2023-04-19T17:27:27.363Z,4.87
2023-04-19T17:29:58.654Z,4.40
2023-04-19T17:32:27.083Z,4.83
2023-04-19T17:34:55.532Z,5.60
2023-04-19T17:37:23.826Z,6.70
2023-04-19T17:39:52.253Z,4.53
2023-04-19T17:42:22.155Z,5.20
2023-04-19T17:44:50.682Z,7.93
2023-04-19T17:47:20.935Z,7.00
2023-04-19T17:49:53.309Z,4.57
2023-04-19T17:52:25.870Z,4.00
2023-04-19T17:54:54.538Z,4.20
2023-04-19T17:57:24.251Z,5.47
2023-04-19T17:59:52.736Z,2.80
2023-04-19T18:02:21.245Z,2.20
2023-04-19T18:04:49.859Z,2.70
2023-04-19T18:07:18.350Z,3.20
2023-04-19T18:09:46.836Z,3.73
2023-04-19T18:12:17.899Z,3.20
2023-04-19T18:14:49.025Z,3.43
2023-04-19T18:17:17.358Z,2.07
2023-04-19T18:19:46.194Z,2.80
2023-04-19T18:22:14.520Z,2.33
2023-04-19T18:24:43.881Z,3.37
2023-04-19T18:27:12.979Z,1.63
2023-04-19T18:29:44.799Z,2.43
2023-04-19T18:32:14.753Z,2.00
2023-04-19T18:34:43.114Z,2.33
2023-04-19T18:37:16.404Z,2.13
2023-04-19T18:39:45.035Z,1.77
2023-04-19T18:42:13.449Z,1.77
2023-04-19T18:47:16.624Z,2.20
2023-04-19T18:49:52.889Z,2.43
2023-04-19T18:52:28.129Z,1.87
2023-04-19T18:54:58.329Z,1.90
2023-04-19T18:57:27.778Z,2.40
2023-04-19T18:59:57.575Z,2.37
2023-04-19T19:02:28.105Z,2.93
2023-04-19T19:05:01.221Z,3.33
2023-04-19T19:10:09.856Z,2.93
2023-04-19T19:12:45.001Z,2.67
2023-04-19T19:15:15.003Z,1.90
2023-04-19T19:17:49.320Z,2.67
2023-04-19T19:20:20.515Z,4.73
2023-04-19T19:22:51.432Z,2.03
2023-04-19T19:25:20.075Z,3.60
2023-04-19T19:28:06.210Z,2.33
2023-04-19T19:30:40.039Z,4.00
2023-04-19T19:33:10.009Z,2.93
2023-04-19T19:35:39.677Z,2.77
2023-04-19T19:38:10.351Z,3.60
2023-04-19T19:41:04.163Z,2.40
2023-04-19T19:43:27.357Z,2.67
2023-04-19T19:45:56.230Z,2.87
2023-04-19T19:48:29.898Z,4.87
2023-04-19T19:53:32.277Z,2.17
2023-04-19T19:56:01.021Z,2.27
2023-04-19T19:58:48.209Z,2.43
2023-04-19T20:01:18.564Z,4.20
2023-04-19T20:03:48.620Z,2.60
2023-04-19T20:07:13.574Z,3.23
2023-04-19T20:09:05.526Z,3.13
2023-04-19T20:11:33.973Z,3.00
2023-04-19T20:14:03.089Z,2.33
2023-04-19T20:16:31.546Z,2.20
2023-04-19T20:19:03.145Z,2.33
2023-04-19T20:21:31.551Z,2.20
2023-04-19T20:23:59.883Z,2.07
2023-04-19T20:26:28.700Z,5.30
2023-04-19T20:28:57.234Z,3.40
2023-04-19T20:31:26.416Z,3.57
2023-04-19T20:33:56.333Z,2.97
2023-04-19T20:36:27.549Z,4.90
2023-04-19T20:38:56.960Z,5.37
2023-04-19T20:41:25.570Z,5.07
2023-04-19T20:43:56.996Z,3.97
2023-04-19T20:46:26.033Z,4.77
2023-04-19T20:48:54.512Z,4.20
2023-04-19T20:51:22.889Z,5.20
2023-04-19T20:53:52.609Z,5.83
2023-04-19T20:56:21.639Z,4.00
2023-04-19T20:58:50.200Z,4.57
2023-04-19T21:01:18.718Z,4.47
2023-04-19T21:03:47.727Z,4.20
2023-04-19T21:06:16.516Z,3.33
2023-04-19T21:08:44.818Z,4.33
2023-04-19T21:11:14.825Z,3.30
2023-04-19T21:13:45.576Z,3.63
2023-04-19T21:16:13.928Z,5.83
2023-04-19T21:18:42.279Z,3.57
2023-04-19T21:21:10.625Z,4.17
2023-04-19T21:23:39.155Z,3.23
2023-04-19T21:26:08.348Z,5.30
2023-04-19T21:28:40.958Z,3.10
2023-04-19T21:31:09.315Z,3.40
2023-04-19T21:33:38.009Z,4.83
2023-04-19T21:36:07.074Z,4.93
2023-04-19T21:38:35.764Z,3.83
2023-04-19T21:41:04.133Z,3.57
2023-04-19T21:43:32.360Z,4.93
2023-04-19T21:46:05.073Z,7.10
2023-04-19T21:48:33.811Z,5.07
2023-04-19T21:51:02.397Z,4.07
2023-04-19T21:53:31.309Z,3.73
2023-04-19T21:55:59.800Z,5.17
2023-04-19T21:58:28.141Z,3.80
2023-04-19T22:00:56.671Z,3.90
2023-04-19T22:03:28.227Z,5.00
2023-04-19T22:06:01.975Z,6.17
2023-04-19T22:08:32.874Z,4.00
2023-04-19T22:11:01.712Z,4.20
2023-04-19T22:13:30.193Z,4.87
2023-04-19T22:16:01.307Z,4.80
2023-04-19T22:18:31.324Z,5.20
2023-04-19T22:20:59.794Z,4.03
2023-04-19T22:23:28.398Z,4.90
2023-04-19T22:26:00.204Z,4.27
2023-04-19T22:28:28.401Z,6.20
2023-04-19T22:30:56.757Z,5.80
2023-04-19T22:33:25.172Z,3.93
2023-04-19T22:35:54.885Z,4.77
2023-04-19T22:38:23.247Z,3.83
2023-04-19T22:40:53.662Z,4.00
2023-04-19T22:43:23.127Z,4.60
2023-04-19T22:45:51.498Z,4.00
2023-04-19T22:48:19.872Z,4.83
2023-04-19T22:50:48.298Z,4.23
2023-04-19T22:53:18.087Z,4.17
2023-04-19T22:55:47.355Z,4.77
2023-04-19T22:58:16.925Z,3.90
2023-04-19T23:00:45.497Z,4.57
2023-04-19T23:03:13.908Z,4.63
2023-04-19T23:05:42.252Z,5.80
2023-04-19T23:08:10.637Z,3.70
2023-04-19T23:10:42.561Z,5.00
2023-04-19T23:13:11.215Z,5.60
2023-04-19T23:15:39.614Z,4.67
2023-04-19T23:18:08.374Z,7.10
2023-04-19T23:20:37.866Z,7.47
2023-04-19T23:23:08.059Z,4.00
2023-04-19T23:25:36.955Z,4.73
2023-04-19T23:28:06.592Z,5.37
2023-04-19T23:30:34.948Z,4.07
2023-04-19T23:33:03.928Z,4.60
2023-04-19T23:35:32.393Z,5.07
2023-04-19T23:38:00.779Z,3.30
2023-04-19T23:40:29.102Z,4.07
2023-04-19T23:42:57.477Z,3.80
2023-04-19T23:45:27.208Z,3.37
2023-04-19T23:47:57.587Z,4.90
2023-04-19T23:50:26.000Z,4.10
2023-04-19T23:52:54.315Z,4.13
2023-04-19T23:55:23.309Z,7.13
2023-04-19T23:57:52.594Z,3.57
